Wetterdaten: Woche 20.02.17 - 26.02.17 (KW8)
Datum Zeit Temp. A. Feuchte A. Luftdruck Regen Wind Richtung Taupunkt Windchill Windben
20.02.2017 00:00 -1,7 C 84 % 1022,1 hPa 0,0 l/m 0,0 km/h N -4,0 C -1,7 C 0,8 km/h
20.02.2017 01:00 0,0 C 84 % 1022,2 hPa 0,0 l/m 1,3 km/h N -2,4 C 0,0 C 8,1 km/h
20.02.2017 02:00 3,4 C 83 % 1021,8 hPa 0,0 l/m 3,7 km/h N 0,8 C 3,4 C 12,9 km/h
20.02.2017 03:00 4,3 C 79 % 1021,5 hPa 0,0 l/m 3,8 km/h N 1,0 C 4,3 C 13,3 km/h
20.02.2017 04:00 4,3 C 78 % 1021,5 hPa 0,0 l/m 3,3 km/h N 0,8 C 4,3 C 12,1 km/h
20.02.2017 05:00 4,0 C 79 % 1021,6 hPa 0,0 l/m 1,7 km/h N 0,6 C 4,0 C 8,9 km/h
20.02.2017 06:00 4,4 C 78 % 1021,7 hPa 0,0 l/m 2,0 km/h N 1,0 C 4,4 C 10,9 km/h
20.02.2017 07:00 5,3 C 77 % 1022,1 hPa 0,0 l/m 4,9 km/h N 1,6 C 5,1 C 16,5 km/h
20.02.2017 08:00 5,6 C 78 % 1022,3 hPa 0,0 l/m 2,8 km/h N 2,0 C 5,6 C 12,1 km/h
20.02.2017 09:00 6,2 C 77 % 1022,6 hPa 0,0 l/m 7,6 km/h N 2,5 C 5,1 C 19,7 km/h
20.02.2017 10:00 6,7 C 76 % 1022,5 hPa 0,0 l/m 7,5 km/h N 2,8 C 5,3 C 22,5 km/h
20.02.2017 11:00 7,3 C 75 % 1022,3 hPa 0,0 l/m 8,4 km/h N 3,1 C 5,8 C 21,7 km/h
20.02.2017 12:00 8,7 C 71 % 1021,8 hPa 0,0 l/m 10,4 km/h N 3,6 C 6,0 C 24,5 km/h
20.02.2017 13:00 8,6 C 70 % 1020,8 hPa 0,0 l/m 10,7 km/h N 3,4 C 5,8 C 28,6 km/h
20.02.2017 14:00 8,8 C 69 % 1020,7 hPa 0,0 l/m 8,6 km/h N 3,4 C 7,2 C 24,5 km/h
20.02.2017 15:00 8,6 C 69 % 1020,1 hPa 0,0 l/m 5,2 km/h N 3,2 C 8,3 C 14,5 km/h
20.02.2017 16:00 8,4 C 68 % 1019,2 hPa 0,0 l/m 3,4 km/h N 2,9 C 8,4 C 13,3 km/h
20.02.2017 17:00 7,9 C 68 % 1019,0 hPa 0,0 l/m 0,7 km/h N 2,3 C 7,9 C 4,0 km/h
20.02.2017 18:00 5,6 C 69 % 1018,6 hPa 0,0 l/m 0,0 km/h N 0,4 C 5,6 C 0,0 km/h
20.02.2017 19:00 3,1 C 76 % 1018,2 hPa 0,0 l/m 0,0 km/h N -0,8 C 3,1 C 0,4 km/h
20.02.2017 20:00 2,6 C 81 % 1017,6 hPa 0,0 l/m 0,0 km/h N -0,3 C 2,6 C 1,2 km/h
20.02.2017 21:00 2,5 C 82 % 1017,0 hPa 0,0 l/m 0,0 km/h N -0,3 C 2,5 C 0,4 km/h
20.02.2017 22:00 4,1 C 79 % 1016,1 hPa 0,0 l/m 2,8 km/h N 0,8 C 4,0 C 14,9 km/h
20.02.2017 23:00 9,1 C 66 % 1015,2 hPa 0,0 l/m 8,3 km/h N 3,1 C 7,7 C 29,8 km/h
21.02.2017 00:00 8,0 C 75 % 1014,7 hPa 0,0 l/m 6,8 km/h N 3,8 C 7,5 C 24,1 km/h
21.02.2017 01:00 8,0 C 78 % 1013,3 hPa 0,3 l/m 11,3 km/h N 4,4 C 4,7 C 37,4 km/h
21.02.2017 02:00 8,5 C 79 % 1012,6 hPa 0,3 l/m 16,2 km/h N 5,1 C 2,8 C 42,2 km/h
21.02.2017 03:00 8,5 C 80 % 1012,1 hPa 1,0 l/m 19,3 km/h N 5,3 C 1,7 C 47,5 km/h
21.02.2017 04:00 8,9 C 78 % 1011,9 hPa 0,3 l/m 18,2 km/h N 5,3 C 2,5 C 45,1 km/h
21.02.2017 05:00 9,3 C 77 % 1011,3 hPa 0,0 l/m 14,4 km/h N 5,4 C 4,5 C 43,0 km/h
21.02.2017 06:00 9,5 C 75 % 1011,1 hPa 0,0 l/m 14,0 km/h N 5,3 C 5,0 C 39,0 km/h
21.02.2017 07:00 9,6 C 77 % 1011,5 hPa 0,0 l/m 13,4 km/h N 5,7 C 5,4 C 36,2 km/h
21.02.2017 08:00 9,6 C 79 % 1011,3 hPa 0,0 l/m 12,5 km/h N 6,2 C 5,9 C 34,6 km/h
21.02.2017 09:00 9,8 C 80 % 1011,6 hPa 0,5 l/m 10,5 km/h N 6,5 C 7,2 C 31,4 km/h
21.02.2017 10:00 10,0 C 81 % 1011,4 hPa 0,8 l/m 11,5 km/h N 6,8 C 6,7 C 29,0 km/h
21.02.2017 11:00 10,1 C 82 % 1011,1 hPa 1,0 l/m 13,6 km/h N 7,0 C 5,9 C 34,6 km/h
21.02.2017 12:00 10,9 C 79 % 1010,6 hPa 0,0 l/m 8,6 km/h N 7,4 C 9,5 C 24,5 km/h
21.02.2017 13:00 10,8 C 79 % 1010,5 hPa 0,0 l/m 7,4 km/h N 7,3 C 10,1 C 21,7 km/h
21.02.2017 14:00 10,6 C 79 % 1010,4 hPa 0,3 l/m 9,8 km/h N 7,2 C 8,4 C 31,4 km/h
21.02.2017 15:00 11,5 C 76 % 1010,0 hPa 0,0 l/m 11,8 km/h N 7,4 C 8,4 C 32,6 km/h
21.02.2017 16:00 11,6 C 74 % 1010,0 hPa 0,0 l/m 16,7 km/h N 7,2 C 6,5 C 41,0 km/h
21.02.2017 17:00 11,3 C 74 % 1010,5 hPa 0,0 l/m 16,4 km/h N 6,8 C 6,1 C 39,8 km/h
21.02.2017 18:00 11,1 C 73 % 1011,8 hPa 0,0 l/m 13,7 km/h N 6,4 C 7,1 C 31,8 km/h
21.02.2017 19:00 10,6 C 74 % 1012,8 hPa 0,0 l/m 7,3 km/h N 6,1 C 10,0 C 22,5 km/h
21.02.2017 20:00 9,8 C 77 % 1013,5 hPa 0,0 l/m 4,9 km/h N 5,8 C 9,6 C 17,7 km/h
21.02.2017 21:00 9,2 C 75 % 1014,0 hPa 0,0 l/m 3,2 km/h N 5,0 C 9,2 C 13,7 km/h
21.02.2017 22:00 8,8 C 77 % 1014,3 hPa 0,0 l/m 2,8 km/h N 5,0 C 8,8 C 10,5 km/h
21.02.2017 23:00 8,6 C 80 % 1014,4 hPa 0,0 l/m 5,7 km/h N 5,3 C 8,4 C 16,5 km/h
22.02.2017 00:00 7,8 C 80 % 1014,9 hPa 0,0 l/m 0,1 km/h N 4,4 C 7,8 C 2,4 km/h
22.02.2017 01:00 6,4 C 82 % 1015,1 hPa 0,0 l/m 0,0 km/h N 3,4 C 6,4 C 0,8 km/h
22.02.2017 02:00 5,7 C 83 % 1014,8 hPa 0,0 l/m 0,0 km/h N 3,0 C 5,7 C 0,4 km/h
22.02.2017 03:00 5,6 C 83 % 1014,5 hPa 0,0 l/m 0,0 km/h N 2,9 C 5,6 C 0,0 km/h
22.02.2017 04:00 5,9 C 84 % 1014,2 hPa 0,3 l/m 0,0 km/h N 3,3 C 5,9 C 0,0 km/h
22.02.2017 05:00 5,9 C 83 % 1014,0 hPa 0,0 l/m 0,0 km/h N 3,3 C 5,9 C 0,0 km/h
22.02.2017 06:00 6,1 C 83 % 1013,3 hPa 0,0 l/m 0,0 km/h N 3,5 C 6,1 C 0,8 km/h
22.02.2017 07:00 7,0 C 83 % 1012,9 hPa 0,0 l/m 0,0 km/h N 4,3 C 7,0 C 0,0 km/h
22.02.2017 08:00 7,4 C 83 % 1012,5 hPa 0,0 l/m 0,0 km/h N 4,7 C 7,4 C 2,4 km/h
22.02.2017 09:00 8,2 C 83 % 1012,1 hPa 0,5 l/m 0,3 km/h N 5,5 C 8,2 C 4,4 km/h
22.02.2017 10:00 10,5 C 83 % 1011,2 hPa 0,0 l/m 4,2 km/h N 7,7 C 10,1 C 19,7 km/h
22.02.2017 11:00 14,1 C 69 % 1010,2 hPa 0,0 l/m 8,6 km/h N 8,5 C 12,8 C 31,0 km/h
22.02.2017 12:00 15,5 C 60 % 1009,0 hPa 0,0 l/m 11,6 km/h N 7,7 C 13,0 C 38,6 km/h
22.02.2017 13:00 14,8 C 59 % 1008,9 hPa 0,3 l/m 14,1 km/h N 6,9 C 11,4 C 37,8 km/h
22.02.2017 14:00 14,6 C 60 % 1008,6 hPa 0,0 l/m 13,5 km/h N 7,0 C 11,3 C 36,2 km/h
22.02.2017 15:00 14,6 C 60 % 1008,4 hPa 0,0 l/m 11,1 km/h N 6,8 C 12,2 C 36,6 km/h
22.02.2017 16:00 14,1 C 59 % 1008,5 hPa 0,0 l/m 12,0 km/h N 6,3 C 11,3 C 35,0 km/h
22.02.2017 17:00 13,3 C 61 % 1008,3 hPa 0,0 l/m 11,9 km/h N 5,9 C 10,4 C 32,6 km/h
22.02.2017 18:00 12,8 C 62 % 1008,2 hPa 0,0 l/m 10,8 km/h N 5,8 C 10,4 C 27,0 km/h
22.02.2017 19:00 12,3 C 65 % 1008,0 hPa 0,0 l/m 9,6 km/h N 5,9 C 10,4 C 29,4 km/h
22.02.2017 20:00 11,8 C 67 % 1008,0 hPa 0,0 l/m 5,8 km/h N 5,9 C 11,3 C 21,7 km/h
22.02.2017 21:00 11,8 C 68 % 1007,8 hPa 0,0 l/m 5,4 km/h N 6,0 C 11,7 C 20,5 km/h
22.02.2017 22:00 12,0 C 65 % 1007,3 hPa 0,0 l/m 4,3 km/h N 5,7 C 12,0 C 18,5 km/h
22.02.2017 23:00 12,6 C 63 % 1006,8 hPa 0,0 l/m 7,0 km/h N 5,6 C 11,9 C 30,6 km/h
23.02.2017 00:00 12,7 C 62 % 1006,6 hPa 0,0 l/m 9,4 km/h N 5,6 C 11,0 C 30,6 km/h
23.02.2017 01:00 12,5 C 63 % 1006,7 hPa 0,0 l/m 10,2 km/h N 5,7 C 10,3 C 39,0 km/h
23.02.2017 02:00 12,2 C 65 % 1006,7 hPa 0,0 l/m 10,0 km/h N 5,8 C 10,0 C 31,0 km/h
23.02.2017 03:00 12,1 C 66 % 1006,8 hPa 0,0 l/m 9,2 km/h N 6,0 C 10,4 C 28,6 km/h
23.02.2017 04:00 12,0 C 68 % 1007,2 hPa 0,0 l/m 4,6 km/h N 6,1 C 12,0 C 18,9 km/h
23.02.2017 05:00 12,0 C 68 % 1007,3 hPa 0,0 l/m 6,2 km/h N 6,1 C 11,8 C 20,9 km/h
23.02.2017 06:00 11,9 C 68 % 1007,4 hPa 0,0 l/m 6,3 km/h N 6,3 C 11,8 C 25,4 km/h
23.02.2017 07:00 11,6 C 70 % 1007,4 hPa 0,0 l/m 3,1 km/h N 6,3 C 11,6 C 13,3 km/h
23.02.2017 08:00 11,9 C 69 % 1007,3 hPa 0,0 l/m 2,4 km/h N 6,3 C 11,9 C 10,5 km/h
23.02.2017 09:00 13,0 C 62 % 1007,2 hPa 0,0 l/m 3,8 km/h N 5,9 C 13,0 C 16,1 km/h
23.02.2017 10:00 14,3 C 59 % 1006,8 hPa 0,0 l/m 3,3 km/h N 6,3 C 14,3 C 13,7 km/h
23.02.2017 11:00 15,0 C 52 % 1006,2 hPa 0,0 l/m 2,0 km/h N 5,0 C 15,0 C 9,3 km/h
23.02.2017 12:00 16,8 C 44 % 1005,2 hPa 0,0 l/m 2,5 km/h N 4,6 C 16,7 C 11,2 km/h
23.02.2017 13:00 18,9 C 35 % 1003,8 hPa 0,0 l/m 4,8 km/h N 3,0 C 18,9 C 22,9 km/h
23.02.2017 14:00 20,8 C 30 % 1002,6 hPa 0,0 l/m 4,5 km/h N 2,5 C 20,8 C 16,9 km/h
23.02.2017 15:00 18,9 C 41 % 1001,7 hPa 0,0 l/m 1,6 km/h N 5,3 C 18,9 C 8,4 km/h
23.02.2017 16:00 17,0 C 42 % 1000,5 hPa 0,0 l/m 2,0 km/h N 3,9 C 17,0 C 10,1 km/h
23.02.2017 17:00 16,3 C 43 % 999,3 hPa 0,0 l/m 0,6 km/h N 3,6 C 16,3 C 5,6 km/h
23.02.2017 18:00 14,8 C 50 % 998,8 hPa 0,0 l/m 1,4 km/h N 4,3 C 14,8 C 10,1 km/h
23.02.2017 19:00 13,0 C 56 % 997,9 hPa 0,0 l/m 0,5 km/h N 4,5 C 13,0 C 6,0 km/h
23.02.2017 20:00 12,1 C 58 % 997,3 hPa 0,0 l/m 0,0 km/h N 4,1 C 12,1 C 2,0 km/h
23.02.2017 21:00 9,8 C 64 % 997,4 hPa 0,0 l/m 0,0 km/h N 3,3 C 9,8 C 1,2 km/h
23.02.2017 22:00 8,0 C 69 % 997,7 hPa 0,0 l/m 0,0 km/h N 2,6 C 8,0 C 0,8 km/h
23.02.2017 23:00 7,2 C 68 % 997,8 hPa 0,0 l/m 1,5 km/h N 1,6 C 7,2 C 4,8 km/h
24.02.2017 00:00 12,3 C 46 % 997,6 hPa 0,0 l/m 1,2 km/h N 0,9 C 12,3 C 4,4 km/h
24.02.2017 01:00 11,9 C 45 % 997,6 hPa 0,0 l/m 0,6 km/h N 0,3 C 11,9 C 4,8 km/h
24.02.2017 02:00 13,8 C 42 % 997,7 hPa 0,0 l/m 3,4 km/h N 1,1 C 13,8 C 16,5 km/h
24.02.2017 03:00 14,6 C 43 % 998,0 hPa 0,0 l/m 7,7 km/h N 2,2 C 13,9 C 24,5 km/h
24.02.2017 04:00 14,3 C 47 % 998,4 hPa 0,0 l/m 6,5 km/h N 3,0 C 13,9 C 23,3 km/h
24.02.2017 05:00 14,1 C 50 % 999,3 hPa 0,0 l/m 10,9 km/h N 3,8 C 11,8 C 30,1 km/h
24.02.2017 06:00 9,6 C 66 % 1002,3 hPa 0,0 l/m 16,5 km/h N 3,5 C 4,4 C 44,3 km/h
24.02.2017 07:00 8,7 C 61 % 1003,4 hPa 0,0 l/m 11,1 km/h N 1,5 C 5,5 C 31,4 km/h
24.02.2017 08:00 9,1 C 57 % 1004,4 hPa 0,0 l/m 11,9 km/h N 1,1 C 5,6 C 33,0 km/h
24.02.2017 09:00 9,2 C 55 % 1005,1 hPa 0,0 l/m 16,5 km/h N 0,7 C 3,6 C 42,7 km/h
24.02.2017 10:00 9,1 C 56 % 1005,8 hPa 0,0 l/m 21,0 km/h N 0,7 C 1,7 C 47,1 km/h
24.02.2017 11:00 9,6 C 51 % 1006,6 hPa 0,0 l/m 18,3 km/h N -0,1 C 3,4 C 43,0 km/h
24.02.2017 12:00 10,0 C 47 % 1006,7 hPa 0,0 l/m 17,3 km/h N -1,0 C 4,2 C 38,6 km/h
24.02.2017 13:00 10,3 C 48 % 1006,5 hPa 0,0 l/m 14,0 km/h N -0,4 C 5,9 C 36,6 km/h
24.02.2017 14:00 9,8 C 47 % 1006,8 hPa 0,0 l/m 13,9 km/h N -0,9 C 5,5 C 33,8 km/h
24.02.2017 15:00 9,8 C 47 % 1007,3 hPa 0,0 l/m 9,1 km/h N -0,9 C 7,9 C 26,9 km/h
24.02.2017 16:00 9,1 C 49 % 1007,9 hPa 0,0 l/m 9,7 km/h N -1,0 C 6,7 C 27,0 km/h
24.02.2017 17:00 8,4 C 52 % 1009,0 hPa 0,0 l/m 6,5 km/h N -1,0 C 7,6 C 19,7 km/h
24.02.2017 18:00 7,7 C 58 % 1010,8 hPa 0,0 l/m 8,5 km/h N -0,0 C 5,8 C 21,7 km/h
24.02.2017 19:00 6,5 C 59 % 1012,4 hPa 0,0 l/m 9,3 km/h N -1,1 C 4,2 C 22,9 km/h
24.02.2017 20:00 6,1 C 53 % 1013,8 hPa 0,0 l/m 9,8 km/h N -2,8 C 3,5 C 26,1 km/h
24.02.2017 21:00 5,7 C 54 % 1015,3 hPa 0,0 l/m 7,8 km/h N -3,0 C 4,5 C 20,5 km/h
24.02.2017 22:00 5,2 C 54 % 1016,5 hPa 0,0 l/m 10,1 km/h N -3,2 C 2,2 C 26,5 km/h
24.02.2017 23:00 4,5 C 58 % 1017,3 hPa 0,0 l/m 8,6 km/h N -3,1 C 2,7 C 20,9 km/h
25.02.2017 00:00 4,2 C 61 % 1018,0 hPa 0,0 l/m 6,0 km/h N -2,6 C 4,0 C 18,5 km/h
25.02.2017 01:00 3,8 C 61 % 1018,8 hPa 0,0 l/m 6,2 km/h N -3,0 C 3,9 C 20,1 km/h
25.02.2017 02:00 3,1 C 61 % 1019,5 hPa 0,0 l/m 5,1 km/h N -3,7 C 2,9 C 18,9 km/h
25.02.2017 03:00 2,7 C 59 % 1019,7 hPa 0,0 l/m 5,3 km/h N -4,4 C 2,4 C 15,3 km/h
25.02.2017 04:00 2,7 C 58 % 1020,3 hPa 0,0 l/m 4,8 km/h N -4,7 C 2,7 C 16,1 km/h
25.02.2017 05:00 2,5 C 61 % 1020,9 hPa 0,0 l/m 2,8 km/h N -4,3 C 2,5 C 10,5 km/h
25.02.2017 06:00 2,6 C 63 % 1021,3 hPa 0,0 l/m 1,7 km/h N -3,6 C 2,6 C 11,7 km/h
25.02.2017 07:00 3,1 C 62 % 1022,0 hPa 0,0 l/m 1,2 km/h N -3,4 C 3,1 C 10,1 km/h
25.02.2017 08:00 4,1 C 59 % 1022,8 hPa 0,0 l/m 6,2 km/h N -3,1 C 3,7 C 19,3 km/h
25.02.2017 09:00 5,1 C 56 % 1023,4 hPa 0,0 l/m 8,6 km/h N -2,9 C 3,1 C 20,9 km/h
25.02.2017 10:00 6,0 C 52 % 1023,7 hPa 0,0 l/m 10,7 km/h N -3,1 C 2,8 C 25,7 km/h
25.02.2017 11:00 6,8 C 49 % 1023,9 hPa 0,0 l/m 10,3 km/h N -3,2 C 3,9 C 25,3 km/h
25.02.2017 12:00 7,0 C 48 % 1023,6 hPa 0,0 l/m 8,6 km/h N -3,2 C 5,4 C 21,3 km/h
25.02.2017 13:00 8,6 C 45 % 1023,1 hPa 0,0 l/m 6,8 km/h N -2,7 C 8,0 C 21,3 km/h
25.02.2017 14:00 9,0 C 42 % 1022,7 hPa 0,0 l/m 7,1 km/h N -3,1 C 8,5 C 21,3 km/h
25.02.2017 15:00 9,2 C 42 % 1022,6 hPa 0,0 l/m 4,6 km/h N -3,2 C 9,2 C 15,7 km/h
25.02.2017 16:00 8,9 C 41 % 1022,5 hPa 0,0 l/m 4,6 km/h N -3,6 C 8,9 C 14,9 km/h
25.02.2017 17:00 7,8 C 44 % 1022,6 hPa 0,0 l/m 0,5 km/h N -3,7 C 7,8 C 4,0 km/h
25.02.2017 18:00 5,1 C 52 % 1022,8 hPa 0,0 l/m 0,0 km/h N -3,9 C 5,1 C 0,4 km/h
25.02.2017 19:00 3,1 C 61 % 1023,4 hPa 0,0 l/m 0,0 km/h N -3,8 C 3,1 C 0,4 km/h
25.02.2017 20:00 1,1 C 67 % 1023,7 hPa 0,0 l/m 0,0 km/h N -4,3 C 1,1 C 0,0 km/h
25.02.2017 21:00 -0,3 C 73 % 1023,6 hPa 0,0 l/m 0,0 km/h N -4,6 C -0,3 C 0,0 km/h
25.02.2017 22:00 -1,3 C 76 % 1023,5 hPa 0,0 l/m 0,0 km/h N -4,9 C -1,3 C 0,0 km/h
25.02.2017 23:00 -1,7 C 79 % 1022,8 hPa 0,0 l/m 0,0 km/h N -4,8 C -1,7 C 0,0 km/h
26.02.2017 00:00 -1,9 C 80 % 1022,0 hPa 0,0 l/m 0,0 km/h N -4,9 C -1,9 C 0,0 km/h
26.02.2017 01:00 -2,2 C 81 % 1021,1 hPa 0,0 l/m 0,0 km/h N -5,0 C -2,2 C 0,0 km/h
26.02.2017 02:00 -2,5 C 82 % 1020,3 hPa 0,0 l/m 0,0 km/h N -5,2 C -2,5 C 0,4 km/h
26.02.2017 03:00 -2,2 C 82 % 1019,4 hPa 0,0 l/m 0,0 km/h N -4,9 C -2,2 C 0,0 km/h
26.02.2017 04:00 -2,5 C 82 % 1018,8 hPa 0,0 l/m 0,0 km/h N -5,1 C -2,5 C 0,0 km/h
26.02.2017 05:00 -2,8 C 82 % 1018,2 hPa 0,0 l/m 0,0 km/h N -5,3 C -2,8 C 0,0 km/h
26.02.2017 06:00 -2,6 C 83 % 1018,0 hPa 0,0 l/m 0,0 km/h N -5,2 C -2,6 C 0,0 km/h
26.02.2017 07:00 -1,5 C 83 % 1018,4 hPa 0,0 l/m 0,0 km/h N -4,0 C -1,5 C 1,2 km/h
26.02.2017 08:00 0,6 C 79 % 1018,6 hPa 0,0 l/m 0,0 km/h N -2,7 C 0,6 C 0,4 km/h
26.02.2017 09:00 2,9 C 70 % 1018,8 hPa 0,0 l/m 0,1 km/h N -2,1 C 2,9 C 2,4 km/h
26.02.2017 10:00 5,7 C 58 % 1018,7 hPa 0,0 l/m 0,2 km/h N -1,9 C 5,7 C 2,8 km/h
26.02.2017 11:00 7,6 C 52 % 1018,5 hPa 0,0 l/m 0,0 km/h N -1,6 C 7,6 C 1,2 km/h
26.02.2017 12:00 8,7 C 50 % 1018,3 hPa 0,0 l/m 0,0 km/h N -1,1 C 8,7 C 1,2 km/h
26.02.2017 13:00 9,7 C 48 % 1017,6 hPa 0,0 l/m 0,2 km/h N -0,9 C 9,7 C 3,2 km/h
26.02.2017 14:00 10,9 C 43 % 1016,9 hPa 0,0 l/m 2,8 km/h N -1,2 C 10,9 C 11,7 km/h
26.02.2017 15:00 11,8 C 40 % 1016,6 hPa 0,0 l/m 3,5 km/h N -1,5 C 11,8 C 11,3 km/h
26.02.2017 16:00 11,5 C 39 % 1016,6 hPa 0,0 l/m 0,8 km/h N -2,0 C 11,5 C 5,2 km/h
26.02.2017 17:00 10,0 C 43 % 1016,8 hPa 0,0 l/m 0,0 km/h N -1,9 C 10,0 C 0,8 km/h
26.02.2017 18:00 8,6 C 49 % 1016,9 hPa 0,0 l/m 0,0 km/h N -1,5 C 8,6 C 0,4 km/h
26.02.2017 19:00 8,2 C 51 % 1016,6 hPa 0,0 l/m 0,1 km/h N -1,4 C 8,2 C 2,4 km/h
26.02.2017 20:00 7,8 C 52 % 1016,8 hPa 0,0 l/m 0,0 km/h N -1,4 C 7,8 C 1,2 km/h
26.02.2017 21:00 5,5 C 59 % 1016,8 hPa 0,0 l/m 0,0 km/h N -2,0 C 5,5 C 0,4 km/h
26.02.2017 22:00 3,6 C 66 % 1016,6 hPa 0,0 l/m 0,0 km/h N -2,3 C 3,6 C 0,0 km/h
26.02.2017 23:00 2,5 C 71 % 1016,1 hPa 0,0 l/m 0,0 km/h N -2,2 C 2,5 C 0,0 km/h
Min-Datum _ 26.02.17 23.02.17 23.02.17 - 20.02.17 - 26.02.17 26.02.17 20.02.17
_ Min-Zeit 05:15 14:00 20:15 - 00:00 - 02:15 05:00 00:00
Minimum _ -2,8 C 28 % 997,1 hPa - 0,0 km/h - -5,5 C -2,8 C 0,0 km/h
Max-Datum _ 23.02.17 20.02.17 25.02.17 21.02.17 24.02.17 - 22.02.17 23.02.17 24.02.17
_ Max-Zeit 14:45 00:00 11:30 03:30 06:00 - 10:45 14:45 06:00
Maximum _ 21,2 C 84 % 1024,0 hPa 1,0 l/m 25,0 km/h
N
- 9,0 C 21,1 C 62,8 km/h
N
Durchschnitt _ 8,1 C 65 % 1013,3 hPa #5,5 l/m 5,6 km/h N 1,6 C 7,0 C 17,1 km/h